Time,TemperatureF,DewpointF,PressureIn,WindDirection,WindDirectionDegrees,WindSpeedMPH,WindSpeedGustMPH,Humidity,HourlyPrecipIn,Conditions,Clouds,dailyrainin,SoftwareType,DateUTC
2013-02-04 00:01:00,26.0,20.0,29.75,South,184,3.0,7.0,79,0.00,,,0.03,,2013-02-04 06:01:00,
2013-02-04 00:11:00,26.0,20.0,29.75,South,184,3.0,7.0,79,0.00,,,0.03,,2013-02-04 06:11:00,
2013-02-04 00:21:00,26.0,21.0,29.75,South,184,1.0,6.0,80,0.00,,,0.03,,2013-02-04 06:21:00,
2013-02-04 00:32:00,26.0,21.0,29.74,South,184,1.0,5.0,80,0.00,,,0.03,,2013-02-04 06:32:00,
2013-02-04 00:41:00,26.0,21.0,29.74,South,184,1.0,5.0,80,0.00,,,0.03,,2013-02-04 06:41:00,
2013-02-04 00:52:00,26.0,21.0,29.74,South,184,0.0,1.0,81,0.00,,,0.03,,2013-02-04 06:52:00,
2013-02-04 01:02:00,26.0,22.0,29.74,South,183,3.0,5.0,83,0.00,,,0.03,,2013-02-04 07:02:00,
2013-02-04 01:11:00,26.0,22.0,29.74,South,183,2.0,4.0,85,0.00,,,0.03,,2013-02-04 07:11:00,
2013-02-04 01:21:00,26.0,22.0,29.74,South,183,2.0,4.0,85,0.00,,,0.03,,2013-02-04 07:21:00,
2013-02-04 01:31:00,25.0,21.0,29.73,South,183,1.0,3.0,85,0.00,,,0.03,,2013-02-04 07:31:00,
2013-02-04 01:42:00,25.0,21.0,29.73,South,183,1.0,3.0,85,0.00,,,0.03,,2013-02-04 07:42:00,
2013-02-04 01:52:00,25.0,21.0,29.73,South,183,2.0,4.0,85,0.00,,,0.03,,2013-02-04 07:52:00,
2013-02-04 02:01:00,25.0,21.0,29.73,South,183,2.0,4.0,85,0.00,,,0.03,,2013-02-04 08:01:00,
2013-02-04 02:11:00,25.0,21.0,29.73,South,183,2.0,4.0,85,0.00,,,0.03,,2013-02-04 08:11:00,
2013-02-04 02:21:00,25.0,22.0,29.73,South,183,0.0,4.0,87,0.00,,,0.03,,2013-02-04 08:21:00,
2013-02-04 02:31:00,25.0,22.0,29.74,South,183,0.0,1.0,87,0.00,,,0.03,,2013-02-04 08:31:00,
2013-02-04 02:42:00,25.0,22.0,29.74,South,183,0.0,1.0,87,0.00,,,0.03,,2013-02-04 08:42:00,
2013-02-04 02:52:00,25.0,21.0,29.74,South,183,0.0,1.0,86,0.00,,,0.03,,2013-02-04 08:52:00,
2013-02-04 03:02:00,25.0,21.0,29.75,South,183,0.0,0.0,85,0.00,,,0.03,,2013-02-04 09:02:00,
2013-02-04 03:11:00,25.0,21.0,29.75,South,183,0.0,4.0,86,0.00,,,0.03,,2013-02-04 09:11:00,
2013-02-04 03:21:00,25.0,21.0,29.75,South,183,0.0,4.0,86,0.00,,,0.03,,2013-02-04 09:21:00,
2013-02-04 03:31:00,25.0,21.0,29.75,South,183,0.0,4.0,86,0.00,,,0.03,,2013-02-04 09:31:00,
2013-02-04 03:41:00,25.0,21.0,29.75,South,183,0.0,4.0,86,0.00,,,0.03,,2013-02-04 09:41:00,
2013-02-04 03:52:00,25.0,22.0,29.75,South,183,0.0,0.0,87,0.00,,,0.03,,2013-02-04 09:52:00,
2013-02-04 04:01:00,23.0,20.0,29.75,South,183,0.0,0.0,87,0.00,,,0.03,,2013-02-04 10:01:00,
2013-02-04 04:11:00,23.0,20.0,29.75,South,183,0.0,0.0,87,0.00,,,0.03,,2013-02-04 10:11:00,
2013-02-04 04:21:00,22.0,19.0,29.76,NE,43,7.0,11.0,89,0.00,,,0.03,,2013-02-04 10:21:00,
2013-02-04 04:32:00,22.0,19.0,29.76,NE,56,10.0,14.0,87,0.00,,,0.03,,2013-02-04 10:32:00,
2013-02-04 04:41:00,22.0,19.0,29.76,NE,56,10.0,14.0,87,0.00,,,0.03,,2013-02-04 10:41:00,
2013-02-04 04:52:00,22.0,19.0,29.77,NE,54,7.0,11.0,87,0.00,,,0.03,,2013-02-04 10:52:00,
2013-02-04 05:01:00,22.0,19.0,29.77,NE,53,8.0,10.0,87,0.00,,,0.03,,2013-02-04 11:01:00,
2013-02-04 05:11:00,22.0,19.0,29.77,NE,53,8.0,10.0,87,0.00,,,0.03,,2013-02-04 11:11:00,
2013-02-04 05:22:00,22.0,19.0,29.78,NE,47,9.0,13.0,88,0.00,,,0.03,,2013-02-04 11:22:00,
2013-02-04 05:32:00,22.0,19.0,29.79,NE,43,6.0,10.0,88,0.00,,,0.03,,2013-02-04 11:32:00,
2013-02-04 05:42:00,22.0,19.0,29.79,NE,43,6.0,10.0,88,0.00,,,0.03,,2013-02-04 11:42:00,
2013-02-04 05:52:00,22.0,19.0,29.79,NE,43,6.0,10.0,88,0.00,,,0.03,,2013-02-04 11:52:00,
2013-02-04 06:02:00,23.0,20.0,29.81,NE,36,8.0,14.0,88,0.00,,,0.03,,2013-02-04 12:02:00,
2013-02-04 06:12:00,23.0,20.0,29.81,NE,36,8.0,14.0,88,0.00,,,0.03,,2013-02-04 12:12:00,
2013-02-04 06:22:00,23.0,20.0,29.81,NE,36,8.0,14.0,88,0.00,,,0.03,,2013-02-04 12:22:00,
2013-02-04 06:32:00,23.0,20.0,29.83,NE,45,13.0,19.0,87,0.00,,,0.03,,2013-02-04 12:32:00,
2013-02-04 06:42:00,23.0,20.0,29.83,NE,45,13.0,19.0,87,0.00,,,0.03,,2013-02-04 12:42:00,
2013-02-04 06:53:00,23.0,20.0,29.83,NE,41,11.0,18.0,87,0.00,,,0.03,,2013-02-04 12:53:00,
2013-02-04 07:02:00,22.0,19.0,29.85,NE,41,11.0,16.0,88,0.00,,,0.03,,2013-02-04 13:02:00,
2013-02-04 07:12:00,22.0,19.0,29.86,NNE,30,6.0,18.0,88,0.00,,,0.03,,2013-02-04 13:12:00,
2013-02-04 07:21:00,22.0,19.0,29.86,NNE,30,6.0,18.0,88,0.00,,,0.03,,2013-02-04 13:21:00,
2013-02-04 08:52:00,19.0,16.0,29.91,NE,35,11.0,20.0,88,0.00,,,0.03,,2013-02-04 14:52:00,
2013-02-04 09:03:00,18.0,15.0,29.92,NE,47,14.0,22.0,88,0.00,,,0.03,,2013-02-04 15:03:00,
2013-02-04 09:12:00,18.0,15.0,29.92,NE,47,14.0,22.0,88,0.00,,,0.03,,2013-02-04 15:12:00,
2013-02-04 09:23:00,18.0,15.0,29.91,NE,46,15.0,21.0,88,0.00,,,0.03,,2013-02-04 15:23:00,
2013-02-04 09:33:00,18.0,15.0,29.91,NE,45,14.0,21.0,88,0.00,,,0.03,,2013-02-04 15:33:00,
2013-02-04 09:43:00,18.0,15.0,29.91,NE,45,14.0,21.0,88,0.00,,,0.03,,2013-02-04 15:43:00,
2013-02-04 09:52:00,19.0,16.0,29.93,NE,42,12.0,19.0,87,0.00,,,0.03,,2013-02-04 15:52:00,
2013-02-04 10:02:00,19.0,16.0,29.93,NE,45,13.0,22.0,87,0.00,,,0.03,,2013-02-04 16:02:00,
2013-02-04 10:11:00,19.0,16.0,29.93,NE,45,13.0,22.0,87,0.00,,,0.03,,2013-02-04 16:11:00,
2013-02-04 10:22:00,19.0,16.0,29.94,NE,48,13.0,18.0,88,0.00,,,0.03,,2013-02-04 16:22:00,
2013-02-04 10:32:00,20.0,17.0,29.96,NE,41,10.0,18.0,87,0.00,,,0.03,,2013-02-04 16:32:00,
2013-02-04 10:42:00,20.0,17.0,29.96,NE,41,10.0,18.0,87,0.00,,,0.03,,2013-02-04 16:42:00,
2013-02-04 10:52:00,20.0,16.0,29.96,NE,36,9.0,15.0,86,0.00,,,0.03,,2013-02-04 16:52:00,
2013-02-04 11:02:00,21.0,17.0,29.99,North,357,4.0,13.0,85,0.00,,,0.03,,2013-02-04 17:02:00,
2013-02-04 11:11:00,21.0,17.0,30.00,North,358,4.0,12.0,84,0.00,,,0.03,,2013-02-04 17:11:00,
2013-02-04 11:21:00,21.0,17.0,30.00,North,358,4.0,12.0,84,0.00,,,0.03,,2013-02-04 17:21:00,
2013-02-04 11:32:00,20.0,16.0,29.98,NE,38,9.0,18.0,84,0.00,,,0.03,,2013-02-04 17:32:00,
2013-02-04 11:42:00,20.0,16.0,29.98,NE,43,11.0,18.0,84,0.00,,,0.03,,2013-02-04 17:42:00,
2013-02-04 11:52:00,20.0,16.0,29.98,NE,43,11.0,18.0,84,0.00,,,0.03,,2013-02-04 17:52:00,
2013-02-04 12:03:00,20.0,16.0,29.98,NE,43,7.0,16.0,84,0.00,,,0.03,,2013-02-04 18:03:00,
2013-02-04 12:11:00,20.0,16.0,29.98,NE,43,7.0,16.0,84,0.00,,,0.03,,2013-02-04 18:11:00,
2013-02-04 12:22:00,20.0,16.0,29.98,NE,43,7.0,16.0,84,0.00,,,0.03,,2013-02-04 18:22:00,
2013-02-04 12:31:00,22.0,18.0,29.96,NE,47,5.0,13.0,84,0.00,,,0.03,,2013-02-04 18:31:00,
2013-02-04 12:41:00,22.0,18.0,29.96,NE,47,5.0,13.0,84,0.00,,,0.03,,2013-02-04 18:41:00,
2013-02-04 12:52:00,22.0,18.0,29.96,NE,42,10.0,15.0,84,0.00,,,0.03,,2013-02-04 18:52:00,
2013-02-04 13:02:00,22.0,18.0,29.94,ENE,64,10.0,13.0,83,0.00,,,0.03,,2013-02-04 19:02:00,
2013-02-04 13:11:00,22.0,18.0,29.94,ENE,64,10.0,13.0,83,0.00,,,0.03,,2013-02-04 19:11:00,
2013-02-04 13:22:00,22.0,17.0,29.94,ENE,76,8.0,16.0,82,0.00,,,0.03,,2013-02-04 19:22:00,
2013-02-04 13:31:00,22.0,17.0,29.93,ENE,70,7.0,12.0,82,0.00,,,0.03,,2013-02-04 19:31:00,
2013-02-04 13:41:00,22.0,17.0,29.93,ENE,70,7.0,12.0,82,0.00,,,0.03,,2013-02-04 19:41:00,
2013-02-04 13:52:00,23.0,18.0,29.92,ENE,75,9.0,14.0,81,0.00,,,0.02,,2013-02-04 19:52:00,
2013-02-04 14:02:00,23.0,18.0,29.92,NE,44,5.0,10.0,81,0.00,,,0.02,,2013-02-04 20:02:00,
2013-02-04 14:12:00,23.0,18.0,29.92,NE,44,5.0,10.0,81,0.00,,,0.02,,2013-02-04 20:12:00,
2013-02-04 14:21:00,24.0,18.0,29.94,NE,46,4.0,8.0,79,0.00,,,0.02,,2013-02-04 20:21:00,
2013-02-04 14:32:00,24.0,18.0,29.95,NE,40,4.0,8.0,79,0.00,,,0.01,,2013-02-04 20:32:00,
2013-02-04 14:42:00,24.0,18.0,29.95,NE,40,4.0,8.0,79,0.00,,,0.01,,2013-02-04 20:42:00,
2013-02-04 14:52:00,24.0,18.0,29.96,NNW,334,4.0,10.0,79,0.00,,,0.01,,2013-02-04 20:52:00,
2013-02-04 15:02:00,24.0,18.0,29.96,NNW,332,6.0,9.0,79,0.00,,,0.01,,2013-02-04 21:02:00,
2013-02-04 15:11:00,24.0,18.0,29.96,NNW,332,6.0,9.0,79,0.00,,,0.01,,2013-02-04 21:11:00,
2013-02-04 15:22:00,24.0,19.0,29.96,NNW,331,2.0,6.0,80,0.00,,,0.01,,2013-02-04 21:22:00,
2013-02-04 15:32:00,24.0,19.0,29.96,NNW,329,5.0,9.0,80,0.00,,,0.00,,2013-02-04 21:32:00,
2013-02-04 15:42:00,24.0,19.0,29.96,NNW,329,5.0,9.0,80,0.00,,,0.00,,2013-02-04 21:42:00,
2013-02-04 15:52:00,24.0,19.0,29.96,NNW,329,3.0,7.0,80,0.00,,,0.00,,2013-02-04 21:52:00,
2013-02-04 16:02:00,24.0,18.0,29.96,NNW,329,2.0,5.0,79,0.00,,,0.00,,2013-02-04 22:02:00,
2013-02-04 16:12:00,24.0,18.0,29.96,NNW,329,2.0,5.0,79,0.00,,,0.00,,2013-02-04 22:12:00,
2013-02-04 16:21:00,24.0,18.0,29.95,NNW,329,0.0,2.0,79,0.00,,,0.00,,2013-02-04 22:21:00,
2013-02-04 16:32:00,24.0,18.0,29.94,NNW,329,0.0,2.0,76,0.00,,,0.00,,2013-02-04 22:32:00,
2013-02-04 16:42:00,24.0,18.0,29.94,NNW,329,0.0,2.0,76,0.00,,,0.00,,2013-02-04 22:42:00,
2013-02-04 16:52:00,24.0,18.0,29.93,NNW,329,0.0,1.0,76,0.00,,,0.00,,2013-02-04 22:52:00,
2013-02-04 17:01:00,25.0,19.0,29.93,NNW,329,0.0,0.0,76,0.00,,,0.00,,2013-02-04 23:01:00,
2013-02-04 17:11:00,25.0,19.0,29.93,NNW,329,0.0,0.0,76,0.00,,,0.00,,2013-02-04 23:11:00,
2013-02-04 17:21:00,24.0,18.0,29.93,NNW,329,0.0,2.0,77,0.00,,,0.00,,2013-02-04 23:21:00,
2013-02-04 17:32:00,24.0,18.0,29.93,NNW,329,0.0,0.0,78,0.00,,,0.00,,2013-02-04 23:32:00,
2013-02-04 17:42:00,24.0,18.0,29.93,NNW,329,0.0,0.0,78,0.00,,,0.00,,2013-02-04 23:42:00,
2013-02-04 17:52:00,23.0,17.0,29.93,NNW,329,0.0,0.0,78,0.00,,,0.00,,2013-02-04 23:52:00,
2013-02-04 18:01:00,23.0,18.0,29.93,NNW,329,0.0,2.0,80,0.00,,,0.00,,2013-02-05 00:01:00,
2013-02-04 18:11:00,23.0,18.0,29.93,NNW,329,0.0,2.0,80,0.00,,,0.00,,2013-02-05 00:11:00,
2013-02-04 18:21:00,22.0,17.0,29.93,NNW,329,0.0,0.0,80,0.00,,,0.00,,2013-02-05 00:21:00,
2013-02-04 18:31:00,22.0,17.0,29.93,NNW,329,0.0,2.0,82,0.00,,,0.00,,2013-02-05 00:31:00,
2013-02-04 18:42:00,22.0,17.0,29.93,NNW,329,0.0,2.0,82,0.00,,,0.00,,2013-02-05 00:42:00,
2013-02-04 18:52:00,22.0,17.0,29.93,NNW,329,0.0,0.0,82,0.00,,,0.00,,2013-02-05 00:52:00,
2013-02-04 19:01:00,21.0,17.0,29.93,NNW,329,0.0,0.0,83,0.00,,,0.00,,2013-02-05 01:01:00,
2013-02-04 19:11:00,21.0,17.0,29.93,NNW,329,0.0,0.0,83,0.00,,,0.00,,2013-02-05 01:11:00,
2013-02-04 19:22:00,21.0,17.0,29.93,NNW,329,0.0,0.0,84,0.00,,,0.00,,2013-02-05 01:22:00,
2013-02-04 19:32:00,21.0,17.0,29.93,NNW,329,0.0,0.0,84,0.00,,,0.00,,2013-02-05 01:32:00,
2013-02-04 19:42:00,21.0,17.0,29.93,NNW,329,0.0,0.0,84,0.00,,,0.00,,2013-02-05 01:42:00,
2013-02-04 19:52:00,20.0,16.0,29.91,NNW,329,0.0,0.0,85,0.00,,,0.00,,2013-02-05 01:52:00,
2013-02-04 20:01:00,20.0,16.0,29.91,NNW,329,0.0,2.0,85,0.00,,,0.00,,2013-02-05 02:01:00,
2013-02-04 20:11:00,20.0,16.0,29.91,NNW,329,0.0,2.0,85,0.00,,,0.00,,2013-02-05 02:11:00,
2013-02-04 20:22:00,19.0,16.0,29.90,NNW,329,0.0,2.0,86,0.00,,,0.00,,2013-02-05 02:22:00,
2013-02-04 20:31:00,19.0,16.0,29.89,NNW,329,2.0,4.0,87,0.00,,,0.00,,2013-02-05 02:31:00,
2013-02-04 20:41:00,19.0,16.0,29.89,NNW,329,2.0,4.0,87,0.00,,,0.00,,2013-02-05 02:41:00,
2013-02-04 20:52:00,19.0,16.0,29.89,NNW,329,2.0,4.0,87,0.00,,,0.00,,2013-02-05 02:52:00,
2013-02-04 21:02:00,19.0,16.0,29.88,NNW,329,2.0,5.0,88,0.00,,,0.00,,2013-02-05 03:02:00,
2013-02-04 21:11:00,19.0,16.0,29.88,NNW,329,2.0,5.0,88,0.00,,,0.00,,2013-02-05 03:11:00,
2013-02-04 21:21:00,20.0,17.0,29.88,WNW,292,2.0,7.0,88,0.00,,,0.00,,2013-02-05 03:21:00,
2013-02-04 21:32:00,21.0,18.0,29.88,WNW,290,1.0,5.0,88,0.00,,,0.00,,2013-02-05 03:32:00,
2013-02-04 21:42:00,21.0,18.0,29.88,WNW,290,1.0,5.0,88,0.00,,,0.00,,2013-02-05 03:42:00,
2013-02-04 21:52:00,21.0,18.0,29.89,WNW,290,0.0,4.0,87,0.00,,,0.00,,2013-02-05 03:52:00,
2013-02-04 22:01:00,21.0,18.0,29.89,WNW,290,1.0,5.0,87,0.00,,,0.00,,2013-02-05 04:01:00,
2013-02-04 22:11:00,21.0,18.0,29.89,WNW,290,1.0,5.0,87,0.00,,,0.00,,2013-02-05 04:11:00,
2013-02-04 22:21:00,21.0,18.0,29.90,WNW,290,0.0,4.0,87,0.00,,,0.00,,2013-02-05 04:21:00,
2013-02-04 22:32:00,22.0,18.0,29.90,WNW,290,0.0,5.0,86,0.00,,,0.00,,2013-02-05 04:32:00,
2013-02-04 22:42:00,22.0,18.0,29.90,WNW,290,0.0,5.0,86,0.00,,,0.00,,2013-02-05 04:42:00,
2013-02-04 22:52:00,22.0,18.0,29.90,West,269,3.0,8.0,86,0.00,,,0.00,,2013-02-05 04:52:00,
2013-02-04 23:02:00,22.0,18.0,29.89,WSW,251,0.0,8.0,86,0.00,,,0.00,,2013-02-05 05:02:00,
2013-02-04 23:11:00,22.0,18.0,29.89,WSW,251,0.0,8.0,86,0.00,,,0.00,,2013-02-05 05:11:00,
2013-02-04 23:21:00,22.0,18.0,29.88,WSW,240,2.0,8.0,86,0.00,,,0.00,,2013-02-05 05:21:00,
2013-02-04 23:32:00,22.0,19.0,29.87,SW,222,5.0,9.0,87,0.00,,,0.00,,2013-02-05 05:32:00,
2013-02-04 23:42:00,22.0,19.0,29.87,SW,222,5.0,9.0,87,0.00,,,0.00,,2013-02-05 05:42:00,
2013-02-04 23:52:00,22.0,19.0,29.87,SSW,213,3.0,12.0,87,0.00,,,0.00,,2013-02-05 05:52:00,